Terminal Aerodrome Forecast
Issued by NWS Upton, NY

Home | Current Version | Previous Version | Text Only | Print | Product List | Glossary On
Versions: 1 2 3 4 5 6 7 8 9 10 11 12 13 14 15 16 17 18 19 20 21 22 23 24 25 26 27 28
000
FTUS41 KOKX 230001 RRA
TAFBDR
TAF
KBDR 230001Z 2300/2324 08011KT 6SM BR OVC010
     FM230200 07007KT 4SM BR OVC007
     FM230900 10007KT 3SM BR VCSH OVC007 WS020/20040KT
     FM231100 13009KT 4SM -SHRA BR OVC007 WS020/20040KT
     FM231300 16011G20KT 3SM SHRA BR OVC007 WS020/19045KT
     FM231500 18014G23KT 3SM SHRA BR OVC010 WS020/20050KT
     FM231900 21012G20KT 4SM -SHRA BR OVC020
     FM232100 25010KT 4SM BR VCSH BKN040=

USA.gov is the U.S. government's official web portal to all federal, state and local government web resources and services.